createdAt,value
2019-04-22T00:01:01.312Z,67.00
2019-04-22T00:03:39.135Z,69.03
2019-04-22T00:06:25.522Z,70.32
2019-04-22T00:08:59.575Z,68.73
2019-04-22T00:11:29.344Z,71.30
2019-04-22T00:13:57.695Z,70.35
2019-04-22T00:16:34.390Z,72.95
2019-04-22T00:21:35.229Z,74.07
2019-04-22T00:24:04.436Z,75.10
2019-04-22T00:26:37.461Z,77.27
2019-04-22T00:29:36.031Z,76.07
2019-04-22T00:31:54.687Z,73.75
2019-04-22T00:34:22.757Z,71.82
2019-04-22T00:36:54.517Z,66.77
2019-04-22T00:39:31.615Z,69.60
2019-04-22T00:41:55.262Z,67.05
2019-04-22T00:44:25.645Z,68.95
2019-04-22T00:47:01.147Z,63.37
2019-04-22T00:52:03.645Z,62.10
2019-04-22T00:54:42.212Z,61.63
2019-04-22T00:57:01.536Z,62.40
2019-04-22T00:59:28.664Z,62.33
2019-04-22T01:02:13.387Z,65.87
2019-04-22T01:07:11.531Z,58.80
2019-04-22T01:09:46.363Z,61.13
2019-04-22T01:12:24.735Z,61.20
2019-04-22T01:14:47.500Z,64.23
2019-04-22T01:17:17.596Z,66.15
2019-04-22T01:19:50.972Z,63.73
2019-04-22T01:22:16.344Z,61.95
2019-04-22T01:24:44.610Z,61.60
2019-04-22T01:27:10.538Z,62.53
2019-04-22T01:29:39.769Z,57.13
2019-04-22T01:31:56.495Z,59.53
2019-04-22T01:34:40.061Z,60.75
2019-04-22T01:37:20.245Z,61.63
2019-04-22T01:40:00.121Z,63.70
2019-04-22T01:42:30.826Z,63.60
2019-04-22T01:44:54.225Z,67.00
2019-04-22T01:47:33.085Z,63.75
2019-04-22T01:49:59.094Z,67.50
2019-04-22T01:52:32.630Z,68.80
2019-04-22T01:55:04.707Z,70.08
2019-04-22T01:57:33.872Z,69.20
2019-04-22T01:59:51.561Z,66.22
2019-04-22T02:02:30.376Z,67.47
2019-04-22T02:05:04.795Z,66.70
2019-04-22T02:07:37.109Z,67.06
2019-04-22T02:10:02.324Z,66.80
2019-04-22T02:12:33.303Z,63.50
2019-04-22T02:15:06.349Z,65.72
2019-04-22T02:17:37.259Z,64.67
2019-04-22T02:22:51.854Z,62.95
2019-04-22T02:25:08.488Z,61.42
2019-04-22T02:27:43.299Z,60.63
2019-04-22T02:30:05.996Z,60.17
2019-04-22T02:33:21.031Z,61.73
2019-04-22T02:35:23.876Z,57.80
2019-04-22T02:37:45.436Z,59.03
2019-04-22T02:40:17.481Z,59.67
2019-04-22T02:42:42.895Z,57.03
2019-04-22T02:45:20.878Z,53.93
2019-04-22T02:47:42.336Z,53.00
2019-04-22T02:50:08.982Z,51.92
2019-04-22T02:52:43.210Z,52.83
2019-04-22T02:55:15.761Z,51.77
2019-04-22T03:00:21.690Z,51.53
2019-04-22T03:02:59.410Z,50.70
2019-04-22T03:05:27.402Z,50.70
2019-04-22T03:08:02.416Z,47.37
2019-04-22T03:10:30.969Z,47.33
2019-04-22T03:12:51.994Z,46.50
2019-04-22T03:15:22.035Z,48.75
2019-04-22T03:17:51.708Z,45.10
2019-04-22T03:20:29.158Z,44.55
2019-04-22T03:22:55.093Z,42.90
2019-04-22T03:25:55.538Z,45.37
2019-04-22T03:27:46.386Z,45.80
2019-04-22T03:30:48.308Z,47.20
2019-04-22T03:40:48.806Z,50.25
2019-04-22T03:45:28.103Z,48.78
2019-04-22T03:53:15.363Z,49.55
2019-04-22T03:55:38.730Z,49.40
2019-04-22T03:58:11.020Z,47.05
2019-04-22T04:00:43.709Z,49.33
2019-04-22T04:03:11.649Z,52.73
2019-04-22T04:08:22.453Z,56.50
2019-04-22T04:15:30.071Z,61.20
2019-04-22T04:21:01.076Z,61.53
2019-04-22T04:23:31.022Z,59.95
2019-04-22T04:33:18.123Z,49.60
2019-04-22T04:35:46.220Z,51.83
2019-04-22T04:38:16.432Z,50.40
2019-04-22T04:40:53.065Z,52.77
2019-04-22T04:43:18.365Z,52.25
2019-04-22T04:48:23.116Z,50.52
2019-04-22T04:51:04.753Z,51.43
2019-04-22T04:53:20.353Z,51.80
2019-04-22T04:55:47.280Z,51.73
2019-04-22T05:00:57.156Z,50.27
2019-04-22T05:03:32.804Z,53.57
2019-04-22T05:05:51.590Z,51.10
2019-04-22T05:08:39.114Z,50.75
2019-04-22T05:13:25.748Z,53.33
2019-04-22T05:16:10.577Z,53.70
2019-04-22T05:18:23.934Z,51.37
2019-04-22T05:21:02.880Z,49.10
2019-04-22T05:23:26.560Z,46.47
2019-04-22T05:25:53.505Z,45.95
2019-04-22T05:28:19.892Z,44.50
2019-04-22T05:30:45.791Z,44.93
2019-04-22T05:33:26.281Z,43.70
2019-04-22T05:35:53.589Z,44.90
2019-04-22T05:38:26.079Z,46.47
2019-04-22T05:40:49.688Z,47.43
2019-04-22T05:43:25.360Z,47.35
2019-04-22T05:45:52.654Z,45.40
2019-04-22T05:48:29.548Z,45.07
2019-04-22T05:50:57.682Z,41.70
2019-04-22T05:53:25.887Z,40.33
2019-04-22T05:56:01.784Z,39.60
2019-04-22T05:58:31.308Z,38.28
2019-04-22T06:01:30.741Z,38.70
2019-04-22T06:03:39.699Z,37.88
2019-04-22T06:06:00.929Z,38.92
2019-04-22T06:08:33.666Z,37.70
2019-04-22T06:11:14.875Z,39.40
2019-04-22T06:13:33.063Z,39.97
2019-04-22T06:16:12.718Z,39.35
2019-04-22T06:18:40.889Z,38.17
2019-04-22T06:21:18.684Z,37.80
2019-04-22T06:23:58.830Z,36.70
2019-04-22T06:26:45.912Z,36.50
2019-04-22T06:28:56.955Z,37.10
2019-04-22T06:31:15.995Z,36.20
2019-04-22T06:33:54.410Z,36.93
2019-04-22T06:36:27.505Z,36.65
2019-04-22T06:38:55.211Z,35.67
2019-04-22T06:41:28.642Z,37.33
2019-04-22T06:44:04.387Z,35.43
2019-04-22T06:46:36.706Z,35.72
2019-04-22T06:49:03.263Z,34.10
2019-04-22T06:51:33.122Z,31.10
2019-04-22T06:54:04.367Z,26.70
2019-04-22T06:56:35.531Z,24.63
2019-04-22T06:59:06.989Z,22.98
2019-04-22T07:01:42.447Z,22.82
2019-04-22T07:04:04.423Z,24.10
2019-04-22T07:06:42.141Z,24.90
2019-04-22T07:11:37.859Z,23.07
2019-04-22T07:16:43.514Z,22.80
2019-04-22T07:19:13.852Z,23.32
2019-04-22T07:21:57.683Z,23.27
2019-04-22T07:24:28.310Z,23.47
2019-04-22T07:27:00.250Z,23.27
2019-04-22T07:29:17.569Z,24.47
2019-04-22T07:31:42.791Z,23.47
2019-04-22T07:34:23.392Z,22.33
2019-04-22T07:36:56.634Z,24.30
2019-04-22T07:39:15.590Z,23.75
2019-04-22T07:41:44.589Z,22.90
2019-04-22T07:44:22.095Z,22.63
2019-04-22T07:49:23.705Z,23.62
2019-04-22T07:51:50.033Z,23.40
2019-04-22T07:54:24.450Z,22.98
2019-04-22T07:56:57.482Z,21.50
2019-04-22T07:59:22.254Z,19.07
2019-04-22T08:01:48.346Z,18.45
2019-04-22T08:04:36.195Z,17.50
2019-04-22T08:06:58.946Z,17.07
2019-04-22T08:09:33.968Z,16.93
2019-04-22T08:11:53.842Z,16.30
2019-04-22T08:14:31.269Z,13.60
2019-04-22T08:17:05.056Z,13.65
2019-04-22T08:19:27.948Z,13.10
2019-04-22T08:21:56.282Z,12.85
2019-04-22T08:24:34.263Z,12.07
2019-04-22T08:27:00.926Z,13.00
2019-04-22T08:31:59.567Z,11.97
2019-04-22T08:34:24.843Z,11.20
2019-04-22T08:37:26.205Z,10.23
2019-04-22T08:39:32.562Z,9.63
2019-04-22T08:41:58.823Z,10.13
2019-04-22T08:44:53.491Z,9.95
2019-04-22T08:47:12.140Z,9.43
2019-04-22T08:49:44.376Z,9.77
2019-04-22T08:52:08.610Z,9.43
2019-04-22T08:54:36.231Z,9.07
2019-04-22T08:57:12.533Z,8.85
2019-04-22T08:59:41.570Z,8.83
2019-04-22T09:02:16.317Z,8.00
2019-04-22T09:04:37.062Z,7.93
2019-04-22T09:07:20.276Z,7.40
2019-04-22T09:09:48.952Z,6.83
2019-04-22T09:12:15.906Z,7.20
2019-04-22T09:14:43.437Z,6.30
2019-04-22T09:17:17.431Z,7.15
2019-04-22T09:19:47.726Z,7.17
2019-04-22T09:24:47.051Z,7.23
2019-04-22T09:27:24.666Z,7.00
2019-04-22T09:32:24.924Z,6.78
2019-04-22T09:34:51.418Z,7.03
2019-04-22T09:37:28.942Z,6.70
2019-04-22T09:40:13.931Z,6.97
2019-04-22T09:42:24.610Z,7.05
2019-04-22T09:45:06.133Z,6.92
2019-04-22T09:47:24.948Z,7.05
2019-04-22T09:49:55.269Z,7.62
2019-04-22T09:52:23.990Z,7.22
2019-04-22T09:55:00.251Z,7.00
2019-04-22T09:57:24.907Z,7.10
2019-04-22T10:00:04.414Z,6.97
2019-04-22T10:05:03.559Z,7.40
2019-04-22T10:07:27.601Z,7.10
2019-04-22T10:12:32.417Z,5.62
2019-04-22T10:14:54.224Z,4.85
2019-04-22T10:17:26.101Z,5.00
2019-04-22T10:20:15.060Z,4.50
2019-04-22T10:22:33.864Z,4.92
2019-04-22T10:24:56.883Z,5.00
2019-04-22T10:27:32.747Z,5.50
2019-04-22T10:32:29.194Z,2.98
2019-04-22T10:34:58.760Z,3.87
2019-04-22T10:37:23.851Z,3.77
2019-04-22T10:39:58.426Z,4.10
2019-04-22T10:42:23.061Z,4.35
2019-04-22T10:44:53.803Z,8.78
2019-04-22T10:47:24.045Z,4.97
2019-04-22T10:49:54.160Z,4.05
2019-04-22T10:52:23.647Z,3.80
2019-04-22T10:54:53.605Z,4.43
2019-04-22T10:57:22.204Z,4.20
2019-04-22T10:59:50.688Z,4.22
2019-04-22T11:02:19.497Z,4.17
2019-04-22T11:04:48.188Z,4.08
2019-04-22T11:07:17.428Z,4.27
2019-04-22T11:09:54.858Z,4.00
2019-04-22T11:12:22.417Z,4.13
2019-04-22T11:14:49.729Z,4.15
2019-04-22T11:17:19.582Z,4.20
2019-04-22T11:19:48.268Z,4.35
2019-04-22T11:22:23.004Z,4.10
2019-04-22T11:24:48.706Z,3.92
2019-04-22T11:27:17.265Z,4.00
2019-04-22T11:29:45.790Z,3.67
2019-04-22T11:32:14.987Z,4.10
2019-04-22T11:34:44.826Z,3.83
2019-04-22T11:37:14.701Z,3.87
2019-04-22T11:39:44.894Z,3.65
2019-04-22T11:42:14.154Z,3.77
2019-04-22T11:44:43.309Z,3.50
2019-04-22T11:47:13.417Z,3.50
2019-04-22T11:49:43.794Z,3.90
2019-04-22T11:52:16.417Z,3.50
2019-04-22T11:54:46.734Z,3.40
2019-04-22T11:57:15.197Z,3.98
2019-04-22T11:59:46.967Z,3.77
2019-04-22T12:02:21.555Z,4.03
2019-04-22T12:04:53.936Z,4.00
2019-04-22T12:07:23.401Z,3.20
2019-04-22T12:09:53.348Z,3.02
2019-04-22T12:12:23.616Z,3.50
2019-04-22T12:14:54.324Z,3.00
2019-04-22T12:17:24.236Z,3.77
2019-04-22T12:19:53.615Z,3.67
2019-04-22T12:22:25.079Z,3.43
2019-04-22T12:24:54.514Z,3.25
2019-04-22T12:27:24.861Z,3.58
2019-04-22T12:29:54.291Z,3.17
2019-04-22T12:32:23.268Z,3.70
2019-04-22T12:34:53.387Z,3.47
2019-04-22T12:37:31.598Z,3.08
2019-04-22T12:39:56.416Z,3.17
2019-04-22T12:42:24.066Z,3.33
2019-04-22T12:44:54.092Z,2.63
2019-04-22T12:47:24.376Z,3.87
2019-04-22T12:50:03.423Z,3.20
2019-04-22T12:52:32.353Z,3.27
2019-04-22T12:54:55.180Z,3.30
2019-04-22T12:57:24.879Z,3.40
2019-04-22T12:59:55.413Z,2.95
2019-04-22T13:02:27.016Z,3.60
2019-04-22T13:04:56.341Z,3.22
2019-04-22T13:07:25.971Z,3.37
2019-04-22T13:09:55.191Z,3.00
2019-04-22T13:12:27.230Z,3.37
2019-04-22T13:14:58.942Z,3.20
2019-04-22T13:17:31.239Z,3.02
2019-04-22T13:20:02.504Z,3.50
2019-04-22T13:22:32.523Z,3.53
2019-04-22T13:25:02.048Z,3.17
2019-04-22T13:27:33.151Z,3.40
2019-04-22T13:30:05.718Z,3.52
2019-04-22T13:32:34.741Z,3.33
2019-04-22T13:35:03.999Z,3.50
2019-04-22T13:37:35.019Z,3.27
2019-04-22T13:40:07.345Z,3.46
2019-04-22T13:42:37.520Z,3.22
2019-04-22T13:45:09.549Z,3.92
2019-04-22T13:47:56.232Z,3.40
2019-04-22T13:50:56.414Z,3.40
2019-04-22T13:58:00.338Z,3.40
2019-04-22T14:00:20.537Z,3.00
2019-04-22T14:02:52.809Z,3.20
2019-04-22T14:05:24.560Z,3.27
2019-04-22T14:07:55.624Z,3.12
2019-04-22T14:10:24.820Z,3.00
2019-04-22T14:12:55.082Z,3.10
2019-04-22T14:15:24.313Z,2.90
2019-04-22T14:17:54.696Z,2.73
2019-04-22T14:20:27.752Z,3.07
2019-04-22T14:22:56.706Z,3.20
2019-04-22T14:25:32.497Z,2.73
2019-04-22T14:28:06.119Z,2.92
2019-04-22T14:30:34.576Z,2.98
2019-04-22T14:33:04.942Z,2.90
2019-04-22T14:35:35.410Z,2.95
2019-04-22T14:38:06.438Z,3.12
2019-04-22T14:40:36.635Z,3.05
2019-04-22T14:43:28.961Z,3.22
2019-04-22T14:46:09.935Z,3.22
2019-04-22T14:48:38.205Z,3.12
2019-04-22T14:51:05.997Z,3.37
2019-04-22T14:53:35.526Z,3.47
2019-04-22T14:55:46.493Z,3.53
2019-04-22T14:58:17.232Z,3.25
2019-04-22T15:00:49.082Z,3.35
2019-04-22T15:03:19.736Z,3.47
2019-04-22T15:05:50.399Z,3.08
2019-04-22T15:08:21.294Z,3.07
2019-04-22T15:10:51.731Z,3.20
2019-04-22T15:13:23.350Z,3.10
2019-04-22T15:16:01.083Z,3.53
2019-04-22T15:18:41.820Z,3.17
2019-04-22T15:21:16.574Z,3.47
2019-04-22T15:23:52.780Z,3.47
2019-04-22T15:26:26.405Z,3.20
2019-04-22T15:28:59.641Z,3.50
2019-04-22T15:31:35.368Z,3.10
2019-04-22T15:34:06.890Z,2.92
2019-04-22T15:36:37.816Z,3.47
2019-04-22T15:39:11.166Z,3.30
2019-04-22T15:41:55.586Z,2.95
2019-04-22T15:44:15.426Z,2.90
2019-04-22T15:46:51.109Z,3.12
2019-04-22T15:49:24.315Z,3.17
2019-04-22T15:52:00.319Z,3.65
2019-04-22T15:54:29.921Z,2.80
2019-04-22T15:56:59.428Z,3.00
2019-04-22T15:59:50.475Z,2.90
2019-04-22T16:02:04.485Z,3.05
2019-04-22T16:04:34.730Z,3.02
2019-04-22T16:07:07.212Z,3.30
2019-04-22T16:09:37.068Z,3.40
2019-04-22T16:12:16.195Z,2.90
2019-04-22T16:14:43.716Z,3.27
2019-04-22T16:17:10.592Z,2.80
2019-04-22T16:19:39.367Z,3.25
2019-04-22T16:22:14.327Z,2.65
2019-04-22T16:24:42.401Z,3.40
2019-04-22T16:27:14.133Z,3.33
2019-04-22T16:29:43.380Z,3.40
2019-04-22T16:32:13.573Z,3.10
2019-04-22T16:34:43.032Z,2.90
2019-04-22T16:37:14.731Z,3.20
2019-04-22T16:39:45.435Z,3.70
2019-04-22T16:42:28.959Z,3.00
2019-04-22T16:44:47.390Z,3.27
2019-04-22T16:47:17.474Z,3.10
2019-04-22T16:49:47.876Z,3.43
2019-04-22T16:52:18.187Z,3.10
2019-04-22T16:54:47.180Z,3.40
2019-04-22T16:57:17.747Z,3.13
2019-04-22T16:59:46.589Z,2.90
2019-04-22T17:02:18.908Z,2.75
2019-04-22T17:04:59.555Z,3.22
2019-04-22T17:07:29.895Z,2.80
2019-04-22T17:10:01.798Z,2.83
2019-04-22T17:12:45.874Z,3.22
2019-04-22T17:15:09.834Z,3.10
2019-04-22T17:17:45.211Z,4.00
2019-04-22T17:20:13.509Z,3.63
2019-04-22T17:22:42.111Z,3.27
2019-04-22T17:25:12.072Z,3.50
2019-04-22T17:27:41.437Z,3.37
2019-04-22T17:30:12.452Z,3.35
2019-04-22T17:32:48.151Z,3.75
2019-04-22T17:35:17.836Z,5.77
2019-04-22T17:37:50.147Z,5.60
2019-04-22T17:40:39.417Z,5.53
2019-04-22T17:43:25.021Z,6.53
2019-04-22T17:45:44.873Z,7.40
2019-04-22T17:48:30.556Z,9.70
2019-04-22T17:51:16.572Z,11.90
2019-04-22T17:53:40.394Z,12.93
2019-04-22T17:56:08.696Z,14.90
2019-04-22T17:58:45.082Z,13.93
2019-04-22T18:01:11.881Z,14.03
2019-04-22T18:03:30.673Z,14.53
2019-04-22T18:05:57.411Z,14.95
2019-04-22T18:08:40.837Z,15.33
2019-04-22T18:11:21.756Z,15.83
2019-04-22T18:13:44.083Z,14.93
2019-04-22T18:16:15.048Z,14.40
2019-04-22T18:18:43.671Z,14.57
2019-04-22T18:21:12.032Z,14.07
2019-04-22T18:23:29.416Z,14.20
2019-04-22T18:26:14.963Z,13.93
2019-04-22T18:28:52.610Z,14.28
2019-04-22T18:31:12.101Z,13.90
2019-04-22T18:33:43.338Z,13.40
2019-04-22T18:36:16.891Z,14.30
2019-04-22T18:38:58.690Z,14.43
2019-04-22T18:41:12.800Z,14.98
2019-04-22T18:43:54.774Z,14.63
2019-04-22T18:46:25.379Z,15.08
2019-04-22T18:48:54.246Z,14.07
2019-04-22T18:51:24.748Z,14.65
2019-04-22T18:54:01.985Z,15.25
2019-04-22T18:56:23.743Z,14.83
2019-04-22T18:58:51.377Z,15.93
2019-04-22T19:01:10.244Z,15.20
2019-04-22T19:03:49.742Z,15.00
2019-04-22T19:06:43.354Z,15.80
2019-04-22T19:09:08.790Z,15.72
2019-04-22T19:11:41.357Z,18.65
2019-04-22T19:14:05.959Z,19.90
2019-04-22T19:19:25.636Z,16.20
2019-04-22T19:21:37.779Z,14.83
2019-04-22T19:24:09.519Z,15.10
2019-04-22T19:26:50.489Z,14.60
2019-04-22T19:29:12.002Z,18.30
2019-04-22T19:31:48.396Z,16.20
2019-04-22T19:34:16.221Z,17.05
2019-04-22T19:36:51.226Z,16.02
2019-04-22T19:39:17.320Z,16.37
2019-04-22T19:41:56.642Z,16.32
2019-04-22T19:44:26.330Z,15.18
2019-04-22T19:47:17.660Z,14.33
2019-04-22T19:49:33.431Z,14.40
2019-04-22T19:52:05.926Z,13.15
2019-04-22T19:54:23.221Z,13.86
2019-04-22T19:56:51.015Z,13.43
2019-04-22T19:59:23.547Z,14.33
2019-04-22T20:02:04.362Z,13.07
2019-04-22T20:04:46.371Z,13.80
2019-04-22T20:07:12.684Z,13.93
2019-04-22T20:09:47.822Z,12.17
2019-04-22T20:12:18.895Z,12.90
2019-04-22T20:14:46.205Z,13.30
2019-04-22T20:17:19.750Z,12.88
2019-04-22T20:22:21.643Z,11.97
2019-04-22T20:24:40.902Z,13.22
2019-04-22T20:27:18.883Z,12.43
2019-04-22T20:29:49.469Z,12.75
2019-04-22T20:32:21.820Z,12.23
2019-04-22T20:34:57.654Z,12.45
2019-04-22T20:37:30.001Z,12.75
2019-04-22T20:39:53.006Z,11.83
2019-04-22T20:44:58.531Z,13.25
2019-04-22T20:47:19.210Z,13.58
2019-04-22T20:49:55.082Z,13.58
2019-04-22T20:52:34.132Z,12.63
2019-04-22T20:54:55.679Z,14.40
2019-04-22T20:57:24.056Z,13.93
2019-04-22T20:59:51.080Z,12.80
2019-04-22T21:02:17.981Z,12.77
2019-04-22T21:04:47.758Z,13.25
2019-04-22T21:07:23.754Z,13.85
2019-04-22T21:09:54.144Z,14.03
2019-04-22T21:12:21.060Z,13.78
2019-04-22T21:15:00.246Z,13.35
2019-04-22T21:17:30.519Z,12.88
2019-04-22T21:20:12.458Z,13.15
2019-04-22T21:22:33.811Z,13.75
2019-04-22T21:24:59.299Z,14.80
2019-04-22T21:27:34.364Z,14.00
2019-04-22T21:29:52.246Z,12.43
2019-04-22T21:32:34.447Z,13.37
2019-04-22T21:35:10.364Z,13.25
2019-04-22T21:37:38.651Z,13.33
2019-04-22T21:39:58.632Z,13.20
2019-04-22T21:42:38.350Z,14.23
2019-04-22T21:45:04.731Z,15.18
2019-04-22T21:47:48.722Z,13.90
2019-04-22T21:50:25.943Z,14.30
2019-04-22T21:52:42.541Z,14.25
2019-04-22T21:55:10.264Z,15.03
2019-04-22T21:58:02.546Z,15.63
2019-04-22T22:00:50.407Z,15.38
2019-04-22T22:03:07.194Z,15.70
2019-04-22T22:05:27.147Z,15.27
2019-04-22T22:07:55.861Z,15.20
2019-04-22T22:10:43.362Z,14.50
2019-04-22T22:13:05.224Z,15.73
2019-04-22T22:15:37.023Z,14.60
2019-04-22T22:18:02.304Z,15.10
2019-04-22T22:20:43.789Z,15.57
2019-04-22T22:23:18.626Z,15.48
2019-04-22T22:25:34.901Z,14.47
2019-04-22T22:28:21.940Z,14.43
2019-04-22T22:33:13.651Z,14.55
2019-04-22T22:35:40.930Z,15.17
2019-04-22T22:38:13.363Z,15.00
2019-04-22T22:40:27.651Z,14.78
2019-04-22T22:42:55.340Z,16.10
2019-04-22T22:45:34.838Z,15.50
2019-04-22T22:48:21.656Z,16.77
2019-04-22T22:50:42.728Z,16.50
2019-04-22T22:55:48.762Z,15.65
2019-04-22T22:58:16.155Z,16.57
2019-04-22T23:00:52.507Z,16.90
2019-04-22T23:06:03.245Z,16.13
2019-04-22T23:08:35.346Z,17.27
2019-04-22T23:11:05.339Z,18.40
2019-04-22T23:13:30.769Z,16.62
2019-04-22T23:15:55.604Z,16.97
2019-04-22T23:18:12.207Z,16.77
2019-04-22T23:20:45.571Z,16.52
2019-04-22T23:23:36.442Z,15.47
2019-04-22T23:26:20.908Z,15.20
2019-04-22T23:28:37.289Z,15.23
2019-04-22T23:31:22.150Z,14.65
2019-04-22T23:33:56.060Z,16.40
2019-04-22T23:36:30.570Z,15.98
2019-04-22T23:39:10.866Z,14.73
2019-04-22T23:41:48.985Z,16.07
2019-04-22T23:44:13.770Z,15.63
2019-04-22T23:46:47.036Z,15.67
2019-04-22T23:49:20.489Z,16.83
2019-04-22T23:51:55.652Z,16.80
2019-04-22T23:54:28.805Z,17.30
2019-04-22T23:56:50.611Z,15.72
2019-04-22T23:59:46.604Z,16.82
